jornaldotempo.uol.com.br alexa rank chart, jornaldotempo.uol.com.br alexa rank daily changes

jornaldotempo.uol.com.br alexa rank chart, jornaldotempo.uol.com.br alexa rank daily changes

jornaldotempo.uol.com.br
Actual rank:
165 859

RANK HISTORY

Date Rank Diff
2017/05/28 165 859 -1 324
2017/05/27 167 183 -3 117
2017/05/26 170 300 -2 513
2017/05/25 172 813 +825
2017/05/24 171 988 -1 506
2017/05/23 173 494 +1 548
2017/05/22 171 946 -1 611
2017/05/21 173 557 -2 329
2017/05/20 175 886 -915
2017/05/19 176 801 -759
2017/05/18 177 560 +7 783
2017/05/17 169 777 +3 905
2017/05/16 165 872 +734
2017/05/15 165 138 +1 184
2017/05/14 163 954 -22
2017/05/13 163 976 +955
2017/05/12 163 021 -734
2017/05/11 163 755 +139
2017/05/10 163 616 +6 974
2017/05/09 156 642 -1 866
2017/05/08 158 508 -160
2017/05/07 158 668 -3 395
2017/05/06 162 063 -1 325
2017/05/05 163 388 +1 363
2017/05/04 162 025 +1 178
2017/05/03 160 847 -546
2017/05/02 161 393 -1 131
2017/05/01 162 524 -4 415
2017/04/30 166 939 -66
2017/04/29 167 005 +1 677
2017/04/28 165 328 -241
2017/04/27 165 569 +324
2017/04/26 165 245 +603
2017/04/25 164 642 -2 629
2017/04/24 167 271 -1 300
2017/04/23 168 571 -1 721
2017/04/22 170 292 -274
2017/04/21 170 566 +1 722
2017/04/20 168 844 +336
2017/04/19 168 508 +1 149
2017/04/18 167 359 -3 367
2017/04/17 170 726 -316
2017/04/16 171 042 -2 105
2017/04/15 173 147 -1 048
2017/04/14 174 195 +1 168
2017/04/13 173 027 +2 102
2017/04/12 170 925 +1 469
2017/04/11 169 456 +561
2017/04/10 168 895 -5 943
2017/04/09 174 838 +121
2017/04/08 174 717 -5 616
2017/04/07 180 333 +2 814
2017/04/06 177 519 +3 641
2017/04/05 173 878 -9
2017/04/04 173 887 -2 283
2017/04/03 176 170 +917
2017/04/02 175 253 -315
2017/04/01 175 568 +1 201
2017/03/31 174 367 +1 291
2017/03/30 173 076 -581
2017/03/29 173 657

WIDGET FOR YOUR SITE

DOMAINS WITH THE NEAREST RANK

Domain Rank
antinovaordemmundial.com 165 854
promt.ru 165 855
barbecuebible.com 165 856
ph-heidelberg.de 165 857
yhrl.com 165 858
jornaldotempo.uol.com.br 165 859
umbraco.com 165 860
shaklee2u.com.my 165 861
2ndgradeworksheets.net 165 862
joyzen.co.kr 165 863
123seminarsonly.com 165 864

DOMAINS WITH THE NEAREST RANK BY TLD .uol.com.

Domain Rank
i.uol.com.br 156 988
corpoacorpo.uol.com.br 158 686
perfectworld.uol.com.br 159 404
ragnarok.uol.com.br 159 427
guiadobebe.uol.com.br 159 482
jornaldotempo.uol.com.br 165 859
bpag.uol.com.br 166 292
discovery.uol.com.br 169 189